Time;durP1;ratioP1;P1;durP2;ratioP2;P2;SDS_P1;SDS_P2;PMS_P1;PMS_P2;Temp;Humidity;BMP_temperature;BMP_pressure;BME280_temperature;BME280_humidity;BME280_pressure;Samples;Min_cycle;Max_cycle;Signal;HPM_P1;HPM_P2
2021/12/04 00:03:26;;;;;;;29.10;11.73;;;;;;;;;;7492751;39;21449;-66
2021/12/04 00:08:34;;;;;;;28.87;11.70;;;;;;;;;;7492913;39;21528;-66
2021/12/04 00:13:38;;;;;;;30.43;11.70;;;;;;;;;;7489823;39;21448;-62
2021/12/04 00:18:43;;;;;;;27.82;12.25;;;;;;;;;;7488958;39;20238;-64
2021/12/04 00:23:47;;;;;;;31.23;11.73;;;;;;;;;;7488946;39;21516;-63
2021/12/04 00:28:52;;;;;;;32.42;12.50;;;;;;;;;;7489040;39;20204;-63
2021/12/04 00:33:57;;;;;;;27.97;11.10;;;;;;;;;;7488795;39;21451;-63
2021/12/04 00:49:52;;;;;;;32.13;12.07;;;;;;;;;;7487735;39;20238;-63
2021/12/04 00:54:57;;;;;;;28.40;11.55;;;;;;;;;;7487969;39;21706;-63
2021/12/04 01:00:02;;;;;;;28.30;11.67;;;;;;;;;;7487968;39;21005;-65
2021/12/04 01:05:07;;;;;;;31.02;11.18;;;;;;;;;;7486835;39;21716;-63
2021/12/04 01:10:11;;;;;;;31.20;11.88;;;;;;;;;;7488678;39;20988;-66
2021/12/04 01:15:16;;;;;;;30.52;12.43;;;;;;;;;;7488054;39;21506;-66
2021/12/04 01:20:21;;;;;;;32.38;12.00;;;;;;;;;;7488803;39;20273;-66
2021/12/04 01:25:26;;;;;;;30.80;12.80;;;;;;;;;;7486857;39;21476;-66
2021/12/04 01:30:31;;;;;;;26.20;11.10;;;;;;;;;;7488744;39;20585;-66
2021/12/04 01:35:36;;;;;;;28.02;11.38;;;;;;;;;;7488022;39;21472;-66
2021/12/04 01:40:43;;;;;;;29.37;11.88;;;;;;;;;;7487769;39;20238;-66
2021/12/04 01:45:47;;;;;;;27.17;11.55;;;;;;;;;;7488151;39;21516;-66
2021/12/04 01:50:54;;;;;;;26.40;11.90;;;;;;;;;;7488283;39;21498;-66
2021/12/04 01:56:00;;;;;;;30.48;11.57;;;;;;;;;;7487975;39;20221;-66
2021/12/04 02:01:05;;;;;;;25.45;11.45;;;;;;;;;;7486467;39;21442;-66
2021/12/04 02:06:09;;;;;;;27.20;12.10;;;;;;;;;;7488379;39;21704;-66
2021/12/04 02:11:14;;;;;;;25.82;11.30;;;;;;;;;;7487233;39;21174;-66
2021/12/04 02:16:20;;;;;;;31.27;12.97;;;;;;;;;;7488470;39;20302;-64
2021/12/04 02:26:50;;;;;;;26.42;12.18;;;;;;;;;;7488358;39;20172;-64
2021/12/04 02:31:56;;;;;;;27.30;11.48;;;;;;;;;;7489619;39;21107;-63
2021/12/04 02:37:01;;;;;;;24.23;10.58;;;;;;;;;;7489480;39;20189;-64
2021/12/04 02:42:07;;;;;;;28.03;11.60;;;;;;;;;;7489111;39;21487;-66
2021/12/04 02:47:12;;;;;;;23.18;10.90;;;;;;;;;;7489229;39;20164;-64
2021/12/04 02:52:17;;;;;;;22.22;10.28;;;;;;;;;;7490016;39;21884;-64
2021/12/04 02:57:22;;;;;;;22.67;10.18;;;;;;;;;;7493101;39;20910;-67
2021/12/04 03:02:27;;;;;;;22.32;10.30;;;;;;;;;;7493637;39;21740;-67
2021/12/04 03:07:32;;;;;;;16.33;8.13;;;;;;;;;;7493716;39;21492;-67
2021/12/04 03:12:40;;;;;;;20.77;9.20;;;;;;;;;;7493416;39;21535;-65
2021/12/04 03:17:44;;;;;;;18.15;8.83;;;;;;;;;;7492463;39;21518;-64
2021/12/04 03:22:51;;;;;;;18.15;9.05;;;;;;;;;;7492226;39;21539;-67
2021/12/04 03:27:56;;;;;;;18.40;8.88;;;;;;;;;;7493862;39;20274;-66
2021/12/04 03:43:49;;;;;;;16.55;7.70;;;;;;;;;;7494027;39;21484;-69
2021/12/04 03:48:55;;;;;;;18.73;7.47;;;;;;;;;;7492431;39;21478;-66
2021/12/04 03:53:59;;;;;;;18.65;7.80;;;;;;;;;;7491808;39;21553;-65
2021/12/04 03:59:05;;;;;;;14.77;7.50;;;;;;;;;;7489294;39;20194;-65
2021/12/04 04:04:09;;;;;;;15.03;6.70;;;;;;;;;;7489004;39;21509;-64
2021/12/04 04:09:14;;;;;;;15.15;6.85;;;;;;;;;;7489362;39;20215;-65
2021/12/04 04:14:19;;;;;;;16.57;6.80;;;;;;;;;;7488228;39;21478;-64
2021/12/04 04:19:25;;;;;;;12.65;5.85;;;;;;;;;;7489162;39;20401;-64
2021/12/04 04:24:32;;;;;;;14.43;5.83;;;;;;;;;;7489041;39;21492;-66
2021/12/04 04:29:37;;;;;;;12.43;5.90;;;;;;;;;;7490449;39;20163;-66
2021/12/04 04:34:41;;;;;;;12.07;4.92;;;;;;;;;;7492720;39;21512;-67
2021/12/04 05:12:23;;;;;;;8.08;3.70;;;;;;;;;;7493660;39;21480;-67
2021/12/04 05:22:45;;;;;;;10.45;3.33;;;;;;;;;;7493792;39;21483;-67
2021/12/04 05:27:49;;;;;;;8.08;2.98;;;;;;;;;;7493089;39;20229;-68
2021/12/04 05:32:54;;;;;;;6.17;2.77;;;;;;;;;;7492529;39;21426;-67
2021/12/04 05:37:59;;;;;;;4.95;2.50;;;;;;;;;;7493618;39;21500;-67
2021/12/04 05:43:04;;;;;;;8.27;2.40;;;;;;;;;;7493070;39;21527;-69
2021/12/04 05:58:59;;;;;;;7.37;3.40;;;;;;;;;;7492444;39;20180;-67
2021/12/04 06:04:03;;;;;;;8.83;3.02;;;;;;;;;;7491430;39;21514;-64
2021/12/04 06:09:08;;;;;;;8.80;2.80;;;;;;;;;;7488456;39;20267;-65
2021/12/04 06:14:13;;;;;;;7.47;2.72;;;;;;;;;;7487425;39;21942;-65
2021/12/04 06:24:43;;;;;;;9.08;2.22;;;;;;;;;;7488234;39;21262;-64
2021/12/04 06:29:48;;;;;;;6.37;2.55;;;;;;;;;;7486812;39;20174;-65
2021/12/04 06:34:53;;;;;;;6.87;2.37;;;;;;;;;;7491430;39;21462;-65
2021/12/04 06:39:58;;;;;;;6.33;2.72;;;;;;;;;;7490048;39;20539;-65
2021/12/04 06:45:04;;;;;;;9.70;3.60;;;;;;;;;;7490646;39;21093;-64
2021/12/04 06:50:16;;;;;;;11.60;4.10;;;;;;;;;;7488276;39;21305;-64
2021/12/04 06:55:17;;;;;;;13.75;5.42;;;;;;;;;;7487069;39;20172;-65
2021/12/04 07:00:23;;;;;;;16.00;6.00;;;;;;;;;;7487867;39;20283;-65
2021/12/04 07:05:29;;;;;;;13.93;6.62;;;;;;;;;;7486113;39;22020;-64
2021/12/04 07:10:34;;;;;;;10.98;5.70;;;;;;;;;;7489838;39;20344;-67
2021/12/04 07:15:41;;;;;;;12.25;5.30;;;;;;;;;;7492762;39;21400;-68
2021/12/04 07:20:45;;;;;;;12.78;5.45;;;;;;;;;;7488877;39;20980;-64
2021/12/04 07:25:50;;;;;;;14.10;5.10;;;;;;;;;;7484431;39;21868;-65
2021/12/04 07:30:55;;;;;;;12.07;4.85;;;;;;;;;;7489233;39;20317;-66
2021/12/04 07:36:00;;;;;;;9.45;3.83;;;;;;;;;;7490931;39;21937;-66
2021/12/04 07:41:05;;;;;;;10.10;4.00;;;;;;;;;;7492242;39;20485;-72
2021/12/04 07:46:10;;;;;;;9.43;3.60;;;;;;;;;;7494771;39;21496;-71
2021/12/04 07:51:17;;;;;;;10.40;3.10;;;;;;;;;;7494523;39;21455;-71
2021/12/04 07:56:22;;;;;;;6.90;3.12;;;;;;;;;;7494252;39;21466;-71
2021/12/04 08:01:27;;;;;;;8.18;2.98;;;;;;;;;;7493345;39;21488;-65
2021/12/04 08:06:34;;;;;;;6.80;2.95;;;;;;;;;;7489666;39;21511;-65
2021/12/04 08:11:38;;;;;;;7.85;2.92;;;;;;;;;;7489483;39;21506;-64
2021/12/04 08:16:43;;;;;;;7.60;3.20;;;;;;;;;;7487591;39;21542;-69
2021/12/04 08:21:48;;;;;;;7.30;3.10;;;;;;;;;;7491242;39;21455;-68
2021/12/04 08:26:53;;;;;;;10.68;3.37;;;;;;;;;;7492740;39;21481;-68
2021/12/04 08:31:58;;;;;;;18.70;7.77;;;;;;;;;;7492266;39;21502;-69
2021/12/04 08:37:03;;;;;;;18.25;6.22;;;;;;;;;;7494252;39;21420;-72
2021/12/04 08:42:08;;;;;;;5.50;1.30;;;;;;;;;;7492635;39;21545;-72
2021/12/04 08:47:13;;;;;;;3.22;1.02;;;;;;;;;;7494507;39;21430;-69
2021/12/04 08:52:18;;;;;;;4.55;0.80;;;;;;;;;;7493849;39;21481;-70
2021/12/04 08:57:23;;;;;;;3.40;0.97;;;;;;;;;;7494035;39;21485;-71
2021/12/04 09:02:28;;;;;;;3.75;0.98;;;;;;;;;;7494423;39;21282;-68
2021/12/04 09:07:33;;;;;;;2.80;0.90;;;;;;;;;;7491231;39;21435;-66
2021/12/04 09:12:39;;;;;;;3.37;1.00;;;;;;;;;;7490677;39;21505;-67
2021/12/04 09:17:44;;;;;;;3.47;1.40;;;;;;;;;;7490665;39;20385;-65
2021/12/04 09:22:50;;;;;;;8.68;1.65;;;;;;;;;;7492250;39;20909;-67
2021/12/04 09:28:02;;;;;;;5.80;2.15;;;;;;;;;;7490141;39;21469;-66
2021/12/04 10:32:58;;;;;;;4.22;1.37;;;;;;;;;;7486144;39;21064;-66
2021/12/04 10:38:06;;;;;;;3.70;1.60;;;;;;;;;;7484694;39;20245;-67
2021/12/04 10:43:30;;;;;;;4.97;1.80;;;;;;;;;;7486336;39;21521;-67
2021/12/04 10:48:36;;;;;;;4.70;1.30;;;;;;;;;;7485777;39;21478;-67
2021/12/04 13:13:59;;;;;;;5.03;1.20;;;;;;;;;;7493780;39;21507;-69
2021/12/04 13:19:09;;;;;;;4.30;1.30;;;;;;;;;;7494310;39;20300;-69
2021/12/04 13:24:13;;;;;;;4.35;1.20;;;;;;;;;;7494133;39;21933;-70
2021/12/04 13:29:19;;;;;;;4.78;1.25;;;;;;;;;;7494491;39;20225;-69
2021/12/04 13:34:26;;;;;;;6.50;2.00;;;;;;;;;;7493592;39;21500;-69
2021/12/04 13:39:31;;;;;;;4.50;1.83;;;;;;;;;;7494375;39;20165;-69
2021/12/04 13:44:36;;;;;;;5.40;1.42;;;;;;;;;;7494070;39;21486;-71
2021/12/04 13:49:53;;;;;;;5.58;1.42;;;;;;;;;;7493739;39;20458;-71
2021/12/04 13:54:50;;;;;;;4.90;1.70;;;;;;;;;;7494315;39;21046;-69
2021/12/04 14:00:15;;;;;;;5.28;1.80;;;;;;;;;;7493246;39;20355;-69
2021/12/04 14:05:22;;;;;;;5.13;1.70;;;;;;;;;;7489845;39;21535;-68
2021/12/04 14:10:47;;;;;;;4.25;1.50;;;;;;;;;;7488732;39;20283;-71
2021/12/04 14:15:54;;;;;;;5.08;1.80;;;;;;;;;;7489645;39;21789;-69
2021/12/04 14:26:24;;;;;;;5.10;1.80;;;;;;;;;;7489198;39;20962;-71
2021/12/04 14:31:31;;;;;;;3.60;1.30;;;;;;;;;;7490002;39;20230;-68
2021/12/04 14:36:36;;;;;;;3.92;1.30;;;;;;;;;;7489339;39;21298;-71
2021/12/04 14:41:41;;;;;;;5.28;1.27;;;;;;;;;;7489641;39;20212;-71
2021/12/04 14:46:46;;;;;;;4.58;1.77;;;;;;;;;;7489397;39;21442;-68
2021/12/04 14:51:50;;;;;;;4.62;1.35;;;;;;;;;;7489730;39;20225;-71
2021/12/04 14:56:55;;;;;;;6.80;2.03;;;;;;;;;;7489176;39;21465;-69
2021/12/04 15:02:01;;;;;;;7.58;2.20;;;;;;;;;;7489236;39;20173;-74
2021/12/04 15:07:06;;;;;;;7.62;2.55;;;;;;;;;;7489064;39;21442;-69
2021/12/04 15:12:11;;;;;;;7.45;1.77;;;;;;;;;;7489780;39;21420;-72
2021/12/04 15:17:16;;;;;;;4.62;1.60;;;;;;;;;;7489351;39;21581;-69
2021/12/04 15:22:43;;;;;;;5.97;1.30;;;;;;;;;;7489990;39;21412;-72
2021/12/04 15:27:48;;;;;;;5.42;1.70;;;;;;;;;;7488550;39;21477;-72
2021/12/04 15:32:53;;;;;;;5.90;1.30;;;;;;;;;;7489251;39;21425;-68
2021/12/04 15:38:03;;;;;;;5.75;1.80;;;;;;;;;;7488645;39;20222;-72
2021/12/04 15:53:57;;;;;;;5.12;1.75;;;;;;;;;;7488948;39;21516;-72
2021/12/04 15:59:02;;;;;;;5.45;1.60;;;;;;;;;;7489259;39;20152;-72
2021/12/04 16:04:07;;;;;;;3.75;1.07;;;;;;;;;;7488897;39;21562;-69
2021/12/04 16:09:13;;;;;;;5.42;1.15;;;;;;;;;;7489196;39;20233;-69
2021/12/04 16:14:18;;;;;;;3.63;1.20;;;;;;;;;;7488879;39;21489;-68
2021/12/04 16:19:23;;;;;;;2.62;0.93;;;;;;;;;;7488446;39;20229;-68
2021/12/04 16:24:28;;;;;;;3.30;1.20;;;;;;;;;;7489990;39;21663;-69
2021/12/04 16:29:36;;;;;;;4.17;1.02;;;;;;;;;;7488628;39;20220;-72
2021/12/04 16:40:26;;;;;;;3.63;1.30;;;;;;;;;;7488753;39;20212;-69
2021/12/04 16:45:33;;;;;;;4.92;1.20;;;;;;;;;;7489193;39;21386;-72
2021/12/04 17:01:29;;;;;;;6.22;1.55;;;;;;;;;;7488092;39;20168;-71
2021/12/04 17:06:34;;;;;;;3.83;1.50;;;;;;;;;;7487489;39;21442;-74
2021/12/04 17:11:41;;;;;;;4.80;1.50;;;;;;;;;;7489534;39;20226;-71
2021/12/04 17:16:46;;;;;;;4.87;1.80;;;;;;;;;;7487873;39;21554;-67
2021/12/04 17:21:51;;;;;;;4.40;1.42;;;;;;;;;;7488895;39;21497;-71
2021/12/04 17:26:56;;;;;;;4.67;1.40;;;;;;;;;;7488311;39;21825;-72
2021/12/04 17:32:02;;;;;;;4.00;1.40;;;;;;;;;;7488723;39;20811;-67
2021/12/04 17:37:07;;;;;;;4.60;1.60;;;;;;;;;;7488305;39;21701;-68
2021/12/04 17:42:12;;;;;;;4.08;1.40;;;;;;;;;;7487616;39;21122;-68
2021/12/04 17:47:19;;;;;;;5.70;1.62;;;;;;;;;;7489605;39;21476;-67
2021/12/04 17:52:23;;;;;;;4.12;1.60;;;;;;;;;;7488401;39;21502;-66
2021/12/04 17:57:28;;;;;;;5.03;1.97;;;;;;;;;;7489870;39;21511;-68
2021/12/04 18:02:33;;;;;;;3.15;1.30;;;;;;;;;;7488779;39;20230;-66
2021/12/04 18:07:38;;;;;;;3.98;1.40;;;;;;;;;;7487686;39;21450;-66
2021/12/04 18:12:45;;;;;;;4.92;1.72;;;;;;;;;;7489425;39;20226;-67
2021/12/04 18:17:50;;;;;;;5.80;1.52;;;;;;;;;;7488191;39;21478;-66
2021/12/04 18:22:55;;;;;;;5.47;1.33;;;;;;;;;;7489298;39;21906;-67
2021/12/04 18:28:02;;;;;;;5.30;1.62;;;;;;;;;;7488949;39;20209;-69
2021/12/04 18:33:08;;;;;;;7.67;2.00;;;;;;;;;;7488583;39;21481;-68
2021/12/04 18:38:13;;;;;;;7.05;1.52;;;;;;;;;;7488509;39;20213;-69
2021/12/04 18:43:22;;;;;;;5.10;1.75;;;;;;;;;;7489136;39;21554;-68
2021/12/04 18:48:26;;;;;;;5.00;1.70;;;;;;;;;;7488501;39;20169;-68
2021/12/04 18:53:30;;;;;;;4.65;1.57;;;;;;;;;;7488698;39;21490;-66
2021/12/04 18:58:36;;;;;;;6.33;1.77;;;;;;;;;;7488836;39;20326;-67
2021/12/04 19:03:43;;;;;;;3.75;1.30;;;;;;;;;;7488687;39;21126;-68
2021/12/04 19:08:48;;;;;;;9.15;1.40;;;;;;;;;;7487883;39;20191;-67
2021/12/04 19:13:54;;;;;;;5.30;1.67;;;;;;;;;;7487671;39;21438;-69
2021/12/04 19:18:59;;;;;;;4.42;1.42;;;;;;;;;;7488140;39;20372;-69
2021/12/04 19:24:04;;;;;;;5.20;1.32;;;;;;;;;;7487482;39;21614;-69
2021/12/04 19:50:49;;;;;;;3.60;1.10;;;;;;;;;;7487703;39;20234;-66
2021/12/04 19:55:58;;;;;;;3.10;0.90;;;;;;;;;;7489128;39;21486;-69
2021/12/04 20:01:08;;;;;;;4.85;1.57;;;;;;;;;;7487572;39;20161;-67
2021/12/04 20:16:41;;;;;;;7.55;1.40;;;;;;;;;;7487219;39;21431;-68
2021/12/04 20:22:23;;;;;;;3.42;1.30;;;;;;;;;;7488075;39;20220;-68
2021/12/04 20:27:01;;;;;;;4.97;1.35;;;;;;;;;;7487564;39;21456;-68
2021/12/04 21:52:55;;;;;;;4.17;1.37;;;;;;;;;;7487982;39;21507;-71
2021/12/04 23:02:57;;;;;;;4.08;1.40;;;;;;;;;;7488467;39;20209;-72
2021/12/04 23:13:26;;;;;;;4.03;1.20;;;;;;;;;;7488421;39;20753;-72
2021/12/04 23:34:54;;;;;;;3.58;1.40;;;;;;;;;;7488581;39;20527;-72
